Time,TemperatureF,DewpointF,PressureIn,WindDirection,WindDirectionDegrees,WindSpeedMPH,WindSpeedGustMPH,Humidity,HourlyPrecipIn,Conditions,Clouds,dailyrainin,SoftwareType,DateUTC
2013-01-19 00:17:00,35.6,25.0,30.28,SSE,149,6.0,8.0,66,0.00,,,0.00,weatherlink.com 1.10,2013-01-19 05:17:00,
2013-01-19 00:32:00,35.6,25.0,30.28,SSE,164,6.0,7.0,66,0.00,,,0.00,weatherlink.com 1.10,2013-01-19 05:32:00,
2013-01-19 00:47:00,35.7,25.0,30.28,SSE,153,5.0,7.0,65,0.00,,,0.00,weatherlink.com 1.10,2013-01-19 05:47:00,
2013-01-19 01:02:00,36.0,25.0,30.28,South,183,5.0,7.0,64,0.00,,,0.00,weatherlink.com 1.10,2013-01-19 06:02:00,
2013-01-19 01:17:00,36.5,24.0,30.28,SSE,167,4.0,7.0,62,0.00,,,0.00,weatherlink.com 1.10,2013-01-19 06:17:00,
2013-01-19 01:32:00,37.1,25.0,30.27,South,186,3.0,7.0,62,0.00,,,0.00,weatherlink.com 1.10,2013-01-19 06:32:00,
2013-01-19 01:47:00,37.6,25.0,30.27,SSE,160,4.0,12.0,62,0.00,,,0.00,weatherlink.com 1.10,2013-01-19 06:47:00,
2013-01-19 02:02:00,37.9,26.0,30.27,SSE,161,6.0,8.0,63,0.00,,,0.00,weatherlink.com 1.10,2013-01-19 07:02:00,
2013-01-19 02:17:00,37.9,26.0,30.27,SSE,162,4.0,8.0,63,0.00,,,0.00,weatherlink.com 1.10,2013-01-19 07:17:00,
2013-01-19 02:32:00,38.1,27.0,30.27,SSW,197,4.0,10.0,64,0.00,,,0.00,weatherlink.com 1.10,2013-01-19 07:32:00,
2013-01-19 02:47:00,38.2,27.0,30.27,SSW,208,5.0,6.0,64,0.00,,,0.00,weatherlink.com 1.10,2013-01-19 07:47:00,
2013-01-19 03:18:00,38.5,27.0,30.26,SSE,167,4.0,9.0,63,0.00,,,0.00,weatherlink.com 1.10,2013-01-19 08:18:00,
2013-01-19 03:33:00,38.4,27.0,30.26,South,169,3.0,8.0,63,0.00,,,0.00,weatherlink.com 1.10,2013-01-19 08:33:00,
2013-01-19 03:48:00,38.3,27.0,30.25,SSE,155,4.0,9.0,63,0.00,,,0.00,weatherlink.com 1.10,2013-01-19 08:48:00,
2013-01-19 04:03:00,38.2,26.0,30.25,SSE,153,5.0,8.0,63,0.00,,,0.00,weatherlink.com 1.10,2013-01-19 09:03:00,
2013-01-19 04:18:00,38.1,26.0,30.25,South,186,3.0,9.0,63,0.00,,,0.00,weatherlink.com 1.10,2013-01-19 09:18:00,
2013-01-19 04:33:00,38.2,27.0,30.25,SSW,201,4.0,13.0,64,0.00,,,0.00,weatherlink.com 1.10,2013-01-19 09:33:00,
2013-01-19 04:48:00,37.9,27.0,30.24,South,190,4.0,7.0,64,0.00,,,0.00,weatherlink.com 1.10,2013-01-19 09:48:00,
2013-01-19 05:03:00,37.6,27.0,30.24,SSW,208,5.0,6.0,65,0.00,,,0.00,weatherlink.com 1.10,2013-01-19 10:03:00,
2013-01-19 05:18:00,37.5,27.0,30.24,SSE,165,3.0,10.0,65,0.00,,,0.00,weatherlink.com 1.10,2013-01-19 10:18:00,
2013-01-19 05:33:00,37.4,27.0,30.24,SSE,160,5.0,8.0,65,0.00,,,0.00,weatherlink.com 1.10,2013-01-19 10:33:00,
2013-01-19 05:48:00,37.2,26.0,30.24,SSW,193,3.0,6.0,65,0.00,,,0.00,weatherlink.com 1.10,2013-01-19 10:48:00,
2013-01-19 06:03:00,37.2,27.0,30.24,SSE,155,4.0,8.0,66,0.00,,,0.00,weatherlink.com 1.10,2013-01-19 11:03:00,
2013-01-19 07:48:00,36.5,27.0,30.23,SSE,160,4.0,8.0,68,0.00,,,0.00,weatherlink.com 1.10,2013-01-19 12:48:00,
2013-01-19 08:03:00,36.6,27.0,30.23,SSW,194,4.0,9.0,68,0.00,,,0.00,weatherlink.com 1.10,2013-01-19 13:03:00,
2013-01-19 08:18:00,36.9,27.0,30.23,SSE,163,4.0,6.0,68,0.00,,,0.00,weatherlink.com 1.10,2013-01-19 13:18:00,
2013-01-19 08:33:00,37.2,27.0,30.23,SSE,148,5.0,7.0,68,0.00,,,0.00,weatherlink.com 1.10,2013-01-19 13:33:00,
2013-01-19 08:48:00,37.6,28.0,30.23,SE,145,5.0,7.0,68,0.00,,,0.00,weatherlink.com 1.10,2013-01-19 13:48:00,
2013-01-19 09:03:00,38.4,28.0,30.23,South,178,4.0,10.0,67,0.00,,,0.00,weatherlink.com 1.10,2013-01-19 14:03:00,
2013-01-19 09:18:00,39.9,29.0,30.23,SSW,201,10.0,14.0,65,0.00,,,0.00,weatherlink.com 1.10,2013-01-19 14:18:00,
2013-01-19 09:33:00,41.6,29.0,30.23,SSW,210,3.0,9.0,62,0.00,,,0.00,weatherlink.com 1.10,2013-01-19 14:33:00,
2013-01-19 09:49:00,42.8,30.0,30.23,SSW,210,4.0,15.0,61,0.00,,,0.00,weatherlink.com 1.10,2013-01-19 14:49:00,
2013-01-19 10:04:00,43.9,29.0,30.22,South,187,4.0,16.0,57,0.00,,,0.00,weatherlink.com 1.10,2013-01-19 15:04:00,
2013-01-19 10:19:00,44.8,29.0,30.22,SW,235,9.0,17.0,55,0.00,,,0.00,weatherlink.com 1.10,2013-01-19 15:19:00,
2013-01-19 10:34:00,45.5,30.0,30.21,SSW,207,13.0,19.0,54,0.00,,,0.00,weatherlink.com 1.10,2013-01-19 15:34:00,
2013-01-19 10:49:00,46.3,29.0,30.21,South,177,10.0,23.0,51,0.00,,,0.00,weatherlink.com 1.10,2013-01-19 15:49:00,
2013-01-19 11:04:00,47.2,29.0,30.20,SSW,204,10.0,19.0,50,0.00,,,0.00,weatherlink.com 1.10,2013-01-19 16:04:00,
2013-01-19 11:19:00,48.1,29.0,30.19,SE,138,5.0,21.0,48,0.00,,,0.00,weatherlink.com 1.10,2013-01-19 16:19:00,
2013-01-19 11:34:00,48.7,28.0,30.17,SSW,211,9.0,23.0,45,0.00,,,0.00,weatherlink.com 1.10,2013-01-19 16:34:00,
2013-01-19 11:49:00,49.8,28.0,30.16,SSW,211,16.0,19.0,43,0.00,,,0.00,weatherlink.com 1.10,2013-01-19 16:49:00,
2013-01-19 12:04:00,50.4,26.0,30.15,SW,225,8.0,22.0,39,0.00,,,0.00,weatherlink.com 1.10,2013-01-19 17:04:00,
2013-01-19 12:19:00,51.0,27.0,30.14,South,169,5.0,26.0,39,0.00,,,0.00,weatherlink.com 1.10,2013-01-19 17:19:00,
2013-01-19 12:34:00,51.4,25.0,30.12,SW,230,15.0,21.0,36,0.00,,,0.00,weatherlink.com 1.10,2013-01-19 17:34:00,
2013-01-19 12:49:00,52.1,26.0,30.11,SSE,164,9.0,26.0,36,0.00,,,0.00,weatherlink.com 1.10,2013-01-19 17:49:00,
2013-01-19 13:04:00,52.9,26.0,30.10,SW,217,10.0,17.0,35,0.00,,,0.00,weatherlink.com 1.10,2013-01-19 18:04:00,
2013-01-19 13:19:00,53.0,27.0,30.09,SSW,198,7.0,18.0,36,0.00,,,0.00,weatherlink.com 1.10,2013-01-19 18:19:00,
2013-01-19 13:34:00,53.7,26.0,30.08,SSW,200,7.0,18.0,35,0.00,,,0.00,weatherlink.com 1.10,2013-01-19 18:34:00,
2013-01-19 13:49:00,53.9,25.0,30.07,WSW,242,10.0,18.0,33,0.00,,,0.00,weatherlink.com 1.10,2013-01-19 18:49:00,
2013-01-19 14:05:00,54.8,27.0,30.06,SSW,194,8.0,16.0,34,0.00,,,0.00,weatherlink.com 1.10,2013-01-19 19:05:00,
2013-01-19 14:50:00,54.8,27.0,30.03,SSW,198,9.0,19.0,34,0.00,,,0.00,weatherlink.com 1.10,2013-01-19 19:50:00,
2013-01-19 15:05:00,54.6,27.0,30.02,SSW,198,11.0,21.0,35,0.00,,,0.00,weatherlink.com 1.10,2013-01-19 20:05:00,
2013-01-19 15:20:00,55.0,28.0,30.02,WSW,237,8.0,23.0,35,0.00,,,0.00,weatherlink.com 1.10,2013-01-19 20:20:00,
2013-01-19 15:35:00,54.9,28.0,30.01,WSW,242,11.0,18.0,35,0.00,,,0.00,weatherlink.com 1.10,2013-01-19 20:35:00,
2013-01-19 15:50:00,55.0,28.0,30.01,SSW,211,7.0,18.0,35,0.00,,,0.00,weatherlink.com 1.10,2013-01-19 20:50:00,
2013-01-19 16:05:00,55.0,28.0,30.00,SSW,205,10.0,19.0,35,0.00,,,0.00,weatherlink.com 1.10,2013-01-19 21:05:00,
2013-01-19 16:20:00,54.9,28.0,30.00,SSW,197,12.0,24.0,35,0.00,,,0.00,weatherlink.com 1.10,2013-01-19 21:20:00,
2013-01-19 17:20:00,53.0,28.0,29.97,SSE,166,8.0,15.0,38,0.00,,,0.00,weatherlink.com 1.10,2013-01-19 22:20:00,
2013-01-19 17:35:00,52.3,28.0,29.97,South,177,8.0,20.0,39,0.00,,,0.00,weatherlink.com 1.10,2013-01-19 22:35:00,
2013-01-19 17:50:00,51.7,28.0,29.96,SSE,148,11.0,24.0,40,0.00,,,0.00,weatherlink.com 1.10,2013-01-19 22:50:00,
2013-01-19 18:05:00,51.0,28.0,29.96,SSE,167,6.0,13.0,41,0.00,,,0.00,weatherlink.com 1.10,2013-01-19 23:05:00,
2013-01-19 18:20:00,50.6,28.0,29.95,SSE,154,7.0,12.0,42,0.00,,,0.00,weatherlink.com 1.10,2013-01-19 23:20:00,
2013-01-19 18:35:00,50.2,28.0,29.95,SSE,159,8.0,16.0,43,0.00,,,0.00,weatherlink.com 1.10,2013-01-19 23:35:00,
2013-01-19 19:05:00,49.6,28.0,29.95,SSW,195,7.0,17.0,44,0.00,,,0.00,weatherlink.com 1.10,2013-01-20 00:05:00,
2013-01-19 19:20:00,49.5,29.0,29.95,SSE,167,7.0,16.0,45,0.00,,,0.00,weatherlink.com 1.10,2013-01-20 00:20:00,
2013-01-19 19:38:00,49.2,29.0,29.96,South,191,5.0,20.0,46,0.00,,,0.00,weatherlink.com 1.10,2013-01-20 00:38:00,
2013-01-19 19:50:00,49.2,29.0,29.97,SSE,161,5.0,15.0,46,0.00,,,0.00,weatherlink.com 1.10,2013-01-20 00:50:00,
2013-01-19 20:05:00,48.9,29.0,29.98,WSW,248,7.0,13.0,47,0.00,,,0.00,weatherlink.com 1.10,2013-01-20 01:05:00,
2013-01-19 20:20:00,48.8,30.0,29.98,SW,232,7.0,14.0,48,0.00,,,0.00,weatherlink.com 1.10,2013-01-20 01:20:00,
2013-01-19 20:35:00,48.7,30.0,29.98,SW,231,7.0,17.0,48,0.00,,,0.00,weatherlink.com 1.10,2013-01-20 01:35:00,
2013-01-19 21:05:00,48.3,30.0,29.97,SSW,207,12.0,17.0,50,0.00,,,0.00,weatherlink.com 1.10,2013-01-20 02:05:00,
2013-01-19 21:20:00,48.2,30.0,29.96,South,191,9.0,16.0,50,0.00,,,0.00,weatherlink.com 1.10,2013-01-20 02:20:00,
2013-01-19 21:35:00,47.9,30.0,29.96,SW,214,6.0,16.0,51,0.00,,,0.00,weatherlink.com 1.10,2013-01-20 02:35:00,
2013-01-19 21:50:00,47.8,30.0,29.96,SSW,201,8.0,15.0,51,0.00,,,0.00,weatherlink.com 1.10,2013-01-20 02:50:00,
2013-01-19 22:05:00,47.9,30.0,29.96,SW,214,8.0,17.0,51,0.00,,,0.00,weatherlink.com 1.10,2013-01-20 03:05:00,
2013-01-19 22:20:00,47.7,31.0,29.96,SSE,150,5.0,17.0,52,0.00,,,0.00,weatherlink.com 1.10,2013-01-20 03:20:00,
2013-01-19 22:50:00,48.0,31.0,29.96,South,177,3.0,15.0,52,0.00,,,0.00,weatherlink.com 1.10,2013-01-20 03:50:00,
2013-01-19 23:05:00,48.3,31.0,29.96,SW,228,10.0,21.0,52,0.00,,,0.00,weatherlink.com 1.10,2013-01-20 04:05:00,
2013-01-19 23:20:00,47.9,31.0,29.95,SW,224,7.0,18.0,52,0.00,,,0.00,weatherlink.com 1.10,2013-01-20 04:20:00,
2013-01-19 23:35:00,47.7,31.0,29.96,SSW,210,6.0,20.0,53,0.00,,,0.00,weatherlink.com 1.10,2013-01-20 04:35:00,
2013-01-19 23:50:00,47.5,31.0,29.95,SW,231,10.0,17.0,53,0.00,,,0.00,weatherlink.com 1.10,2013-01-20 04:50:00,